createdAt,value
2019-04-25T00:01:21.561Z,2.53
2019-04-25T00:03:57.844Z,2.40
2019-04-25T00:06:33.578Z,2.20
2019-04-25T00:09:13.429Z,2.20
2019-04-25T00:11:49.002Z,2.00
2019-04-25T00:14:25.597Z,2.33
2019-04-25T00:17:01.711Z,2.63
2019-04-25T00:19:36.874Z,3.50
2019-04-25T00:22:18.673Z,2.27
2019-04-25T00:25:14.363Z,2.33
2019-04-25T00:27:40.913Z,2.80
2019-04-25T00:30:16.454Z,2.80
2019-04-25T00:32:54.199Z,4.03
2019-04-25T00:35:29.235Z,4.20
2019-04-25T00:38:04.319Z,4.30
2019-04-25T00:40:39.351Z,4.90
2019-04-25T00:43:16.005Z,5.90
2019-04-25T00:45:51.655Z,6.17
2019-04-25T00:48:27.569Z,6.23
2019-04-25T00:51:02.693Z,7.43
2019-04-25T00:53:37.669Z,8.17
2019-04-25T00:56:12.933Z,7.93
2019-04-25T00:59:14.000Z,9.57
2019-04-25T01:02:21.895Z,9.23
2019-04-25T01:04:57.220Z,8.97
2019-04-25T01:07:34.397Z,10.87
2019-04-25T01:10:11.907Z,11.20
2019-04-25T01:12:46.921Z,10.57
2019-04-25T01:15:22.918Z,10.03
2019-04-25T01:17:57.993Z,10.77
2019-04-25T01:20:34.472Z,10.30
2019-04-25T01:23:45.720Z,10.57
2019-04-25T01:26:20.777Z,10.23
2019-04-25T01:28:56.497Z,9.97
2019-04-25T01:31:33.654Z,10.67
2019-04-25T01:34:10.897Z,9.63
2019-04-25T01:37:04.090Z,10.70
2019-04-25T01:40:04.175Z,10.50
2019-04-25T01:43:04.707Z,11.30
2019-04-25T01:45:40.081Z,10.20
2019-04-25T01:48:15.021Z,9.70
2019-04-25T01:50:50.523Z,10.13
2019-04-25T01:53:25.497Z,11.37
2019-04-25T01:56:04.070Z,9.53
2019-04-25T01:58:37.260Z,10.77
2019-04-25T02:01:14.343Z,9.77
2019-04-25T02:03:50.396Z,10.00
2019-04-25T02:06:26.254Z,9.90
2019-04-25T02:09:01.369Z,10.03
2019-04-25T02:11:56.917Z,10.10
2019-04-25T02:14:33.587Z,8.80
2019-04-25T02:17:08.756Z,9.37
2019-04-25T02:19:44.250Z,10.27
2019-04-25T02:22:19.269Z,9.57
2019-04-25T02:24:55.689Z,9.60
2019-04-25T02:27:31.260Z,9.50
2019-04-25T02:30:07.388Z,10.70
2019-04-25T02:32:44.217Z,8.77
2019-04-25T02:35:19.484Z,9.80
2019-04-25T02:37:57.973Z,10.50
2019-04-25T02:40:33.719Z,10.70
2019-04-25T02:43:08.379Z,11.50
2019-04-25T02:46:02.227Z,10.03
2019-04-25T02:48:56.261Z,11.40
2019-04-25T02:51:37.154Z,11.00
2019-04-25T02:54:14.009Z,10.90
2019-04-25T02:56:49.100Z,11.40
2019-04-25T02:59:25.373Z,10.50
2019-04-25T03:02:00.828Z,10.63
2019-04-25T03:04:35.827Z,10.80
2019-04-25T03:07:11.524Z,11.20
2019-04-25T03:09:46.634Z,10.43
2019-04-25T03:12:30.529Z,10.47
2019-04-25T03:15:00.050Z,10.70
2019-04-25T03:17:35.505Z,11.10
2019-04-25T03:20:30.364Z,11.07
2019-04-25T03:23:14.520Z,11.07
2019-04-25T03:25:49.670Z,11.70
2019-04-25T03:28:24.717Z,12.07
2019-04-25T03:31:02.170Z,11.10
2019-04-25T03:33:38.484Z,11.90
2019-04-25T03:36:16.639Z,10.90
2019-04-25T03:38:50.463Z,9.30
2019-04-25T03:41:25.630Z,9.33
2019-04-25T03:44:00.652Z,8.27
2019-04-25T03:46:35.800Z,8.47
2019-04-25T03:49:11.709Z,8.27
2019-04-25T03:51:46.837Z,8.50
2019-04-25T03:54:23.122Z,8.40
2019-04-25T03:56:58.602Z,7.70
2019-04-25T03:59:34.403Z,8.10
2019-04-25T04:02:09.462Z,6.33
2019-04-25T04:04:44.492Z,5.50
2019-04-25T04:07:21.536Z,4.47
2019-04-25T04:09:57.080Z,4.10
2019-04-25T04:12:33.960Z,4.10
2019-04-25T04:15:15.806Z,3.73
2019-04-25T04:18:08.592Z,3.17
2019-04-25T04:20:58.090Z,2.90
2019-04-25T04:24:17.602Z,2.67
2019-04-25T04:27:15.577Z,2.87
2019-04-25T04:29:54.124Z,2.47
2019-04-25T04:32:29.209Z,2.30
2019-04-25T04:35:04.306Z,1.90
2019-04-25T04:37:40.209Z,2.23
2019-04-25T04:40:27.576Z,2.13
2019-04-25T04:43:04.360Z,1.90
2019-04-25T04:45:39.380Z,2.10
2019-04-25T04:48:15.520Z,2.10
2019-04-25T04:50:50.617Z,2.10
2019-04-25T04:53:25.600Z,1.93
2019-04-25T04:56:00.579Z,1.80
2019-04-25T04:58:35.748Z,1.70
2019-04-25T05:01:11.097Z,1.40
2019-04-25T05:04:04.003Z,1.27
2019-04-25T05:06:45.617Z,1.10
2019-04-25T05:09:26.759Z,1.20
2019-04-25T05:12:01.956Z,1.30
2019-04-25T05:14:37.034Z,0.97
2019-04-25T05:17:12.230Z,0.70
2019-04-25T05:19:47.746Z,1.10
2019-04-25T05:22:24.296Z,1.10
2019-04-25T05:24:59.394Z,1.20
2019-04-25T05:27:46.380Z,1.00
2019-04-25T05:30:16.583Z,0.90
2019-04-25T05:32:54.340Z,1.57
2019-04-25T05:35:29.380Z,1.00
2019-04-25T05:38:04.349Z,1.00
2019-04-25T05:40:53.907Z,0.70
2019-04-25T05:43:29.187Z,0.60
2019-04-25T05:46:04.170Z,1.10
2019-04-25T05:48:39.116Z,1.10
2019-04-25T05:51:14.134Z,1.20
2019-04-25T05:53:49.108Z,0.90
2019-04-25T05:56:26.782Z,0.80
2019-04-25T05:59:09.188Z,1.13
2019-04-25T06:01:44.186Z,1.10
2019-04-25T06:04:19.132Z,1.10
2019-04-25T06:06:55.247Z,0.80
2019-04-25T06:09:49.234Z,0.90
2019-04-25T06:12:41.567Z,0.87
2019-04-25T06:15:18.298Z,0.77
2019-04-25T06:18:19.869Z,0.83
2019-04-25T06:20:55.596Z,0.80
2019-04-25T06:23:48.037Z,0.80
2019-04-25T06:26:33.295Z,0.80
2019-04-25T06:28:59.984Z,1.20
2019-04-25T06:31:35.143Z,0.90
2019-04-25T06:34:10.121Z,1.10
2019-04-25T06:36:45.286Z,1.13
2019-04-25T06:39:20.398Z,0.97
2019-04-25T06:41:55.398Z,0.90
2019-04-25T06:44:44.988Z,0.90
2019-04-25T06:47:38.826Z,1.00
2019-04-25T06:50:15.699Z,0.70
2019-04-25T06:52:50.966Z,1.07
2019-04-25T06:55:27.173Z,0.80
2019-04-25T06:58:10.301Z,0.80
2019-04-25T07:00:42.555Z,0.80
2019-04-25T07:03:17.344Z,0.97
2019-04-25T07:05:53.546Z,0.70
2019-04-25T07:08:29.120Z,0.70
2019-04-25T07:11:05.129Z,0.90
2019-04-25T07:13:40.068Z,0.70
2019-04-25T07:16:15.077Z,0.73
2019-04-25T07:18:51.002Z,0.80
2019-04-25T07:21:26.394Z,1.00
2019-04-25T07:24:37.040Z,0.57
2019-04-25T07:27:24.545Z,0.60
2019-04-25T07:30:27.272Z,0.77
2019-04-25T07:32:59.848Z,0.80
2019-04-25T07:35:35.735Z,0.60
2019-04-25T07:38:10.874Z,0.70
2019-04-25T07:40:45.933Z,0.93
2019-04-25T07:43:21.088Z,0.50
2019-04-25T07:45:56.104Z,0.80
2019-04-25T07:48:32.090Z,0.93
2019-04-25T07:51:07.836Z,0.80
2019-04-25T07:53:43.624Z,0.73
2019-04-25T07:56:18.869Z,0.57
2019-04-25T07:58:55.328Z,0.67
2019-04-25T08:01:31.075Z,0.90
2019-04-25T08:04:07.087Z,0.50
2019-04-25T08:06:42.236Z,0.60
2019-04-25T08:09:17.313Z,0.90
2019-04-25T08:11:53.197Z,0.60
2019-04-25T08:15:04.053Z,0.70
2019-04-25T08:17:56.883Z,0.80
2019-04-25T08:20:32.862Z,0.53
2019-04-25T08:23:08.936Z,0.80
2019-04-25T08:25:44.004Z,0.70
2019-04-25T08:28:18.961Z,0.60
2019-04-25T08:30:55.028Z,0.70
2019-04-25T08:33:30.008Z,0.73
2019-04-25T08:36:09.139Z,0.73
2019-04-25T08:38:42.943Z,0.70
2019-04-25T08:41:21.527Z,0.90
2019-04-25T08:43:55.396Z,0.80
2019-04-25T08:46:30.582Z,0.77
2019-04-25T08:49:46.202Z,0.60
2019-04-25T08:52:21.335Z,0.70
2019-04-25T08:55:11.125Z,0.80
2019-04-25T08:58:08.525Z,0.53
2019-04-25T09:01:04.043Z,0.63
2019-04-25T09:03:46.079Z,0.50
2019-04-25T09:06:21.051Z,0.50
2019-04-25T09:08:56.112Z,0.50
2019-04-25T09:11:33.369Z,0.93
2019-04-25T09:14:08.754Z,0.60
2019-04-25T09:16:45.105Z,0.60
2019-04-25T09:19:20.257Z,0.50
2019-04-25T09:22:00.126Z,0.60
2019-04-25T09:24:36.276Z,0.70
2019-04-25T09:27:09.961Z,0.50
2019-04-25T09:29:50.286Z,0.53
2019-04-25T09:32:25.245Z,0.53
2019-04-25T09:35:00.250Z,0.73
2019-04-25T09:37:35.410Z,0.60
2019-04-25T09:40:15.897Z,0.70
2019-04-25T09:42:51.169Z,0.40
2019-04-25T09:45:39.542Z,0.50
2019-04-25T09:48:44.292Z,0.60
2019-04-25T09:51:23.585Z,0.50
2019-04-25T09:54:05.526Z,0.60
2019-04-25T09:56:45.865Z,0.70
2019-04-25T09:59:37.393Z,0.50
2019-04-25T10:02:13.547Z,0.50
2019-04-25T10:04:50.368Z,0.50
2019-04-25T10:07:25.475Z,0.67
2019-04-25T10:10:00.458Z,0.70
2019-04-25T10:12:35.426Z,0.60
2019-04-25T10:15:48.030Z,0.70
2019-04-25T10:18:23.456Z,0.50
2019-04-25T10:20:59.512Z,0.50
2019-04-25T10:23:35.017Z,0.40
2019-04-25T10:26:13.184Z,0.63
2019-04-25T10:28:48.144Z,0.80
2019-04-25T10:31:23.781Z,0.53
2019-04-25T10:33:59.898Z,0.60
2019-04-25T10:36:35.039Z,0.70
2019-04-25T10:39:11.429Z,0.50
2019-04-25T10:41:47.033Z,0.60
2019-04-25T10:44:24.543Z,0.60
2019-04-25T10:47:00.248Z,0.50
2019-04-25T10:49:35.274Z,0.50
2019-04-25T10:52:10.442Z,0.60
2019-04-25T10:54:46.664Z,0.60
2019-04-25T10:57:22.469Z,0.60
2019-04-25T11:00:06.155Z,0.67
2019-04-25T11:02:34.820Z,0.57
2019-04-25T11:05:13.706Z,0.70
2019-04-25T11:07:48.892Z,0.43
2019-04-25T11:10:26.114Z,0.60
2019-04-25T11:13:01.241Z,0.60
2019-04-25T11:15:36.714Z,0.60
2019-04-25T11:18:15.158Z,0.47
2019-04-25T11:20:50.375Z,0.47
2019-04-25T11:23:26.099Z,0.57
2019-04-25T11:26:03.914Z,0.40
2019-04-25T11:28:40.703Z,0.57
2019-04-25T11:31:24.601Z,0.87
2019-04-25T11:34:34.965Z,0.60
2019-04-25T11:37:10.024Z,0.43
2019-04-25T11:39:56.106Z,0.37
2019-04-25T11:42:31.873Z,0.80
2019-04-25T11:45:08.026Z,0.70
2019-04-25T11:47:46.918Z,0.70
2019-04-25T11:50:28.581Z,0.60
2019-04-25T11:53:04.804Z,0.40
2019-04-25T11:55:39.821Z,0.70
2019-04-25T11:58:14.831Z,0.70
2019-04-25T12:00:53.499Z,0.43
2019-04-25T12:03:28.962Z,0.50
2019-04-25T12:06:04.028Z,0.50
2019-04-25T12:08:39.043Z,0.37
2019-04-25T12:11:14.203Z,0.30
2019-04-25T12:13:49.179Z,0.37
2019-04-25T12:16:24.743Z,0.30
2019-04-25T12:18:59.686Z,0.70
2019-04-25T12:21:34.918Z,0.33
2019-04-25T12:24:10.090Z,0.40
2019-04-25T12:26:46.541Z,0.53
2019-04-25T12:29:22.031Z,0.40
2019-04-25T12:31:59.467Z,0.40
2019-04-25T12:34:34.732Z,0.30
2019-04-25T12:37:09.737Z,0.50
2019-04-25T12:39:44.850Z,0.30
2019-04-25T12:42:19.835Z,0.43
2019-04-25T12:45:19.619Z,0.40
2019-04-25T12:47:57.649Z,0.30
2019-04-25T12:50:31.631Z,0.40
2019-04-25T12:53:06.615Z,0.53
2019-04-25T12:55:41.735Z,0.30
2019-04-25T12:58:16.796Z,0.40
2019-04-25T13:00:57.204Z,0.40
2019-04-25T13:03:29.797Z,0.30
2019-04-25T13:06:05.743Z,0.50
2019-04-25T13:08:40.735Z,0.40
2019-04-25T13:11:15.798Z,0.30
2019-04-25T13:13:50.882Z,0.40
2019-04-25T13:16:25.850Z,0.50
2019-04-25T13:19:12.740Z,0.40
2019-04-25T13:21:37.666Z,0.43
2019-04-25T13:24:13.036Z,0.33
2019-04-25T13:26:54.401Z,0.50
2019-04-25T13:29:47.134Z,0.43
2019-04-25T13:32:39.642Z,0.50
2019-04-25T13:35:25.565Z,0.80
2019-04-25T13:38:08.636Z,0.50
2019-04-25T13:40:43.898Z,0.40
2019-04-25T13:43:18.913Z,0.40
2019-04-25T13:45:54.520Z,0.40
2019-04-25T13:48:29.624Z,0.30
2019-04-25T13:51:04.834Z,0.40
2019-04-25T13:53:39.815Z,0.50
2019-04-25T13:56:14.982Z,0.30
2019-04-25T13:58:50.261Z,0.40
2019-04-25T14:01:25.972Z,0.40
2019-04-25T14:04:04.253Z,0.37
2019-04-25T14:06:39.298Z,0.40
2019-04-25T14:09:18.276Z,0.63
2019-04-25T14:11:54.010Z,0.30
2019-04-25T14:14:30.161Z,0.40
2019-04-25T14:17:30.044Z,0.30
2019-04-25T14:20:16.418Z,0.60
2019-04-25T14:22:53.330Z,0.40
2019-04-25T14:25:28.561Z,0.40
2019-04-25T14:28:08.580Z,0.40
2019-04-25T14:30:43.793Z,0.30
2019-04-25T14:33:18.714Z,0.40
2019-04-25T14:35:54.902Z,0.33
2019-04-25T14:38:30.004Z,0.40
2019-04-25T14:41:07.079Z,0.40
2019-04-25T14:43:43.247Z,0.30
2019-04-25T14:46:18.252Z,0.37
2019-04-25T14:48:53.431Z,0.40
2019-04-25T14:51:28.423Z,0.40
2019-04-25T14:54:44.961Z,0.50
2019-04-25T14:57:24.490Z,0.33
2019-04-25T15:00:03.011Z,0.30
2019-04-25T15:02:38.413Z,0.40
2019-04-25T15:05:13.693Z,0.50
2019-04-25T15:07:48.740Z,0.60
2019-04-25T15:10:24.351Z,0.40
2019-04-25T15:12:59.305Z,0.30
2019-04-25T15:15:50.673Z,0.40
2019-04-25T15:18:26.696Z,0.33
2019-04-25T15:21:03.595Z,0.50
2019-04-25T15:23:38.623Z,0.37
2019-04-25T15:26:13.753Z,0.30
2019-04-25T15:28:53.091Z,0.50
2019-04-25T15:31:30.134Z,0.50
2019-04-25T15:34:05.975Z,0.40
2019-04-25T15:37:14.782Z,0.80
2019-04-25T15:39:57.271Z,0.70
2019-04-25T15:42:41.727Z,0.40
2019-04-25T15:45:38.871Z,0.40
2019-04-25T15:48:14.111Z,0.40
2019-04-25T15:50:49.886Z,0.30
2019-04-25T15:53:25.537Z,0.50
2019-04-25T15:56:03.351Z,0.30
2019-04-25T15:58:38.417Z,0.30
2019-04-25T16:01:13.675Z,0.37
2019-04-25T16:03:52.436Z,0.30
2019-04-25T16:06:27.775Z,0.40
2019-04-25T16:09:03.032Z,0.60
2019-04-25T16:11:39.646Z,0.40
2019-04-25T16:14:14.674Z,0.40
2019-04-25T16:16:49.745Z,0.50
2019-04-25T16:19:24.769Z,0.60
2019-04-25T16:22:00.191Z,0.43
2019-04-25T16:24:35.329Z,0.40
2019-04-25T16:27:18.935Z,0.40
2019-04-25T16:29:54.199Z,0.67
2019-04-25T16:32:29.521Z,0.40
2019-04-25T16:35:05.418Z,0.40
2019-04-25T16:37:41.347Z,0.43
2019-04-25T16:40:16.542Z,0.40
2019-04-25T16:42:52.308Z,0.40
2019-04-25T16:45:31.185Z,0.30
2019-04-25T16:48:06.247Z,0.40
2019-04-25T16:50:42.077Z,0.30
2019-04-25T16:53:17.165Z,0.40
2019-04-25T16:55:52.246Z,0.43
2019-04-25T16:58:27.383Z,0.30
2019-04-25T17:01:09.069Z,0.50
2019-04-25T17:03:44.851Z,0.57
2019-04-25T17:06:19.297Z,0.33
2019-04-25T17:08:54.416Z,0.53
2019-04-25T17:11:31.991Z,0.40
2019-04-25T17:14:15.147Z,0.60
2019-04-25T17:17:15.155Z,0.50
2019-04-25T17:19:58.609Z,0.60
2019-04-25T17:22:35.094Z,1.00
2019-04-25T17:25:14.583Z,0.50
2019-04-25T17:27:50.659Z,0.50
2019-04-25T17:30:27.897Z,0.50
2019-04-25T17:33:12.762Z,0.50
2019-04-25T17:36:11.724Z,0.50
2019-04-25T17:38:54.630Z,0.40
2019-04-25T17:41:33.119Z,0.70
2019-04-25T17:44:08.504Z,0.60
2019-04-25T17:46:46.461Z,0.40
2019-04-25T17:49:22.076Z,0.40
2019-04-25T17:51:57.654Z,0.40
2019-04-25T17:54:34.250Z,0.90
2019-04-25T17:57:09.514Z,0.60
2019-04-25T17:59:44.632Z,0.60
2019-04-25T18:02:20.534Z,0.40
2019-04-25T18:04:55.588Z,0.60
2019-04-25T18:07:30.528Z,0.40
2019-04-25T18:10:29.298Z,0.43
2019-04-25T18:13:05.119Z,0.53
2019-04-25T18:16:04.408Z,0.70
2019-04-25T18:18:54.820Z,0.40
2019-04-25T18:21:29.888Z,0.40
2019-04-25T18:24:36.664Z,0.40
2019-04-25T18:27:18.323Z,0.40
2019-04-25T18:29:56.300Z,0.50
2019-04-25T18:32:34.765Z,0.50
2019-04-25T18:35:27.613Z,0.60
2019-04-25T18:38:20.003Z,0.63
2019-04-25T18:41:15.270Z,0.60
2019-04-25T18:43:55.884Z,0.30
2019-04-25T18:46:38.345Z,0.60
2019-04-25T18:49:13.554Z,0.60
2019-04-25T18:51:57.515Z,0.77
2019-04-25T18:54:59.574Z,0.60
2019-04-25T18:57:45.475Z,1.20
2019-04-25T19:00:41.638Z,0.63
2019-04-25T19:03:35.775Z,3.37
2019-04-25T19:06:14.022Z,3.20
2019-04-25T19:08:49.039Z,1.80
2019-04-25T19:11:24.111Z,1.50
2019-04-25T19:13:59.092Z,0.70
2019-04-25T19:16:34.449Z,0.60
2019-04-25T19:19:09.420Z,0.60
2019-04-25T19:21:45.479Z,0.70
2019-04-25T19:24:20.527Z,0.50
2019-04-25T19:26:55.592Z,0.77
2019-04-25T19:29:30.524Z,0.60
2019-04-25T19:32:08.241Z,0.70
2019-04-25T19:34:43.418Z,0.73
2019-04-25T19:37:18.373Z,0.83
2019-04-25T19:40:14.212Z,0.60
2019-04-25T19:42:53.054Z,1.10
2019-04-25T19:45:28.998Z,1.03
2019-04-25T19:48:04.182Z,0.90
2019-04-25T19:50:39.190Z,0.90
2019-04-25T19:53:14.377Z,1.03
2019-04-25T19:55:50.356Z,0.57
2019-04-25T19:58:25.372Z,1.10
2019-04-25T20:01:00.422Z,1.00
2019-04-25T20:03:58.333Z,1.00
2019-04-25T20:06:49.507Z,0.90
2019-04-25T20:09:42.328Z,0.60
2019-04-25T20:12:20.103Z,0.80
2019-04-25T20:14:55.058Z,1.00
2019-04-25T20:17:30.170Z,0.93
2019-04-25T20:20:05.497Z,1.70
2019-04-25T20:22:40.698Z,0.70
2019-04-25T20:25:15.757Z,0.90
2019-04-25T20:27:51.522Z,1.20
2019-04-25T20:30:26.469Z,1.87
2019-04-25T20:33:07.833Z,1.37
2019-04-25T20:35:43.543Z,1.03
2019-04-25T20:38:18.711Z,0.80
2019-04-25T20:40:53.958Z,1.33
2019-04-25T20:43:29.693Z,1.00
2019-04-25T20:46:04.744Z,0.93
2019-04-25T20:48:40.014Z,1.23
2019-04-25T20:51:14.986Z,0.80
2019-04-25T20:53:50.747Z,1.07
2019-04-25T20:56:25.737Z,0.90
2019-04-25T20:59:00.798Z,1.23
2019-04-25T21:01:35.747Z,1.13
2019-04-25T21:04:29.604Z,1.20
2019-04-25T21:07:04.671Z,0.80
2019-04-25T21:09:40.002Z,0.53
2019-04-25T21:12:15.050Z,0.93
2019-04-25T21:15:12.492Z,2.20
2019-04-25T21:17:56.292Z,1.13
2019-04-25T21:20:31.854Z,1.60
2019-04-25T21:23:41.391Z,1.20
2019-04-25T21:26:16.518Z,1.50
2019-04-25T21:28:52.228Z,0.67
2019-04-25T21:31:27.281Z,1.40
2019-04-25T21:34:02.618Z,2.40
2019-04-25T21:36:37.906Z,1.30
2019-04-25T21:39:49.563Z,0.90
2019-04-25T21:42:44.462Z,1.20
2019-04-25T21:45:20.013Z,0.70
2019-04-25T21:47:55.357Z,0.90
2019-04-25T21:50:30.972Z,1.97
2019-04-25T21:53:06.238Z,1.10
2019-04-25T21:55:41.747Z,1.10
2019-04-25T21:58:17.050Z,1.00
2019-04-25T22:01:02.525Z,2.27
2019-04-25T22:03:39.096Z,0.90
2019-04-25T22:06:14.312Z,1.80
2019-04-25T22:08:49.470Z,0.90
2019-04-25T22:11:24.635Z,1.23
2019-04-25T22:13:59.956Z,0.60
2019-04-25T22:16:35.671Z,1.47
2019-04-25T22:19:11.141Z,1.73
2019-04-25T22:21:46.439Z,1.67
2019-04-25T22:24:21.689Z,1.10
2019-04-25T22:26:59.562Z,1.43
2019-04-25T22:29:36.765Z,0.90
2019-04-25T22:32:30.855Z,0.57
2019-04-25T22:35:25.420Z,0.80
2019-04-25T22:38:00.426Z,0.87
2019-04-25T22:40:35.639Z,2.37
2019-04-25T22:43:10.855Z,1.17
2019-04-25T22:45:46.255Z,0.60
2019-04-25T22:48:26.335Z,0.63
2019-04-25T22:51:01.783Z,1.10
2019-04-25T22:53:36.735Z,1.07
2019-04-25T22:56:11.849Z,1.10
2019-04-25T22:58:46.859Z,1.00
2019-04-25T23:01:44.193Z,0.80
2019-04-25T23:04:26.903Z,1.17
2019-04-25T23:07:03.829Z,0.90
2019-04-25T23:09:39.399Z,1.80
2019-04-25T23:12:14.659Z,1.10
2019-04-25T23:14:50.163Z,1.20
2019-04-25T23:17:25.161Z,0.80
2019-04-25T23:20:00.385Z,1.20
2019-04-25T23:22:35.835Z,1.40
2019-04-25T23:25:14.200Z,1.23
2019-04-25T23:28:12.527Z,1.17
2019-04-25T23:31:06.511Z,1.00
2019-04-25T23:33:41.773Z,1.00
2019-04-25T23:36:17.023Z,1.37
2019-04-25T23:38:52.201Z,1.00
2019-04-25T23:41:27.480Z,1.30
2019-04-25T23:44:02.549Z,1.20
2019-04-25T23:46:37.801Z,0.67
2019-04-25T23:49:12.950Z,1.23
2019-04-25T23:51:47.936Z,2.03
2019-04-25T23:54:23.116Z,1.00
2019-04-25T23:56:58.141Z,1.00
2019-04-25T23:59:33.435Z,1.23
